createdAt,value
2022-12-09T00:01:22.525Z,-1.06
2022-12-09T00:03:49.907Z,-1.03
2022-12-09T00:06:25.131Z,-0.99
2022-12-09T00:08:52.974Z,-0.97
2022-12-09T00:11:22.690Z,-0.95
2022-12-09T00:13:55.656Z,-0.99
2022-12-09T00:16:24.880Z,-0.93
2022-12-09T00:18:52.963Z,-0.98
2022-12-09T00:21:30.317Z,-1.08
2022-12-09T00:24:01.124Z,-1.21
2022-12-09T00:26:29.457Z,-1.24
2022-12-09T00:28:57.264Z,-1.19
2022-12-09T00:31:32.387Z,-1.12
2022-12-09T00:34:07.382Z,-1.04
2022-12-09T00:36:34.739Z,-1.04
2022-12-09T00:39:02.038Z,-1.16
2022-12-09T00:41:30.266Z,-1.77
2022-12-09T00:43:57.869Z,-2.24
2022-12-09T00:46:25.313Z,-2.45
2022-12-09T00:48:52.915Z,-2.53
2022-12-09T00:51:24.192Z,-2.43
2022-12-09T00:53:54.809Z,-2.49
2022-12-09T00:56:28.383Z,-2.70
2022-12-09T00:58:56.972Z,-2.85
2022-12-09T01:01:24.442Z,-2.88
2022-12-09T01:03:51.757Z,-2.88
2022-12-09T01:06:23.447Z,-3.00
2022-12-09T01:08:50.783Z,-3.11
2022-12-09T01:11:26.132Z,-3.02
2022-12-09T01:13:57.674Z,-2.91
2022-12-09T01:16:29.915Z,-2.48
2022-12-09T01:19:01.789Z,-2.50
2022-12-09T01:21:30.467Z,-2.57
2022-12-09T01:23:58.173Z,-2.68
2022-12-09T01:26:25.408Z,-2.78
2022-12-09T01:28:53.432Z,-2.79
2022-12-09T01:31:25.175Z,-2.75
2022-12-09T01:33:54.801Z,-2.39
2022-12-09T01:36:27.270Z,-2.23
2022-12-09T01:38:56.585Z,-2.10
2022-12-09T01:41:24.384Z,-2.00
2022-12-09T01:44:27.370Z,-2.05
2022-12-09T01:46:58.959Z,-2.14
2022-12-09T01:49:43.192Z,-1.94
2022-12-09T01:52:22.625Z,-1.79
2022-12-09T01:54:52.188Z,-1.83
2022-12-09T01:57:20.671Z,-2.23
2022-12-09T01:59:48.432Z,-2.09
2022-12-09T02:02:18.938Z,-2.12
2022-12-09T02:04:49.847Z,-2.30
2022-12-09T02:07:19.392Z,-1.94
2022-12-09T02:09:47.022Z,-1.98
2022-12-09T02:12:25.455Z,-2.23
2022-12-09T02:15:08.812Z,-2.55
2022-12-09T02:17:57.804Z,-2.68
2022-12-09T02:21:05.328Z,-2.58
2022-12-09T02:24:10.763Z,-2.22
2022-12-09T02:26:50.164Z,-2.02
2022-12-09T02:29:57.328Z,-2.42
2022-12-09T02:32:57.029Z,-2.14
2022-12-09T02:36:02.077Z,-1.86
2022-12-09T02:38:33.439Z,-2.00
2022-12-09T02:41:08.270Z,-1.92
2022-12-09T02:43:49.942Z,-2.44
2022-12-09T02:46:20.759Z,-2.47
2022-12-09T02:48:58.532Z,-2.11
2022-12-09T02:51:31.722Z,-1.95
2022-12-09T02:54:11.353Z,-1.85
2022-12-09T02:56:41.906Z,-1.95
2022-12-09T02:59:09.594Z,-2.03
2022-12-09T03:02:09.133Z,-2.14
2022-12-09T03:04:42.272Z,-1.83
2022-12-09T03:07:44.031Z,-1.69
2022-12-09T03:10:44.653Z,-1.73
2022-12-09T03:14:00.144Z,-1.93
2022-12-09T03:17:16.459Z,-1.82
2022-12-09T03:19:56.030Z,-1.65
2022-12-09T03:22:29.320Z,-1.61
2022-12-09T03:25:18.435Z,-1.40
2022-12-09T03:28:23.650Z,-1.19
2022-12-09T03:30:53.946Z,-1.62
2022-12-09T03:33:24.288Z,-1.57
2022-12-09T03:35:58.244Z,-1.34
2022-12-09T03:38:32.116Z,-1.45
2022-12-09T03:41:30.178Z,-1.41
2022-12-09T03:44:12.784Z,-1.52
2022-12-09T03:46:40.263Z,-1.73
2022-12-09T03:49:07.529Z,-1.52
2022-12-09T03:52:07.916Z,-1.68
2022-12-09T03:54:49.719Z,-1.70
2022-12-09T03:57:20.569Z,-1.41
2022-12-09T03:59:59.939Z,-1.36
2022-12-09T04:02:27.848Z,-1.52
2022-12-09T04:04:56.060Z,-1.60
2022-12-09T04:07:23.517Z,-1.38
2022-12-09T04:09:50.723Z,-1.05
2022-12-09T04:12:17.851Z,-1.16
2022-12-09T04:14:45.835Z,-1.28
2022-12-09T04:17:13.519Z,-0.97
2022-12-09T04:19:40.967Z,-1.02
2022-12-09T04:22:09.020Z,-0.76
2022-12-09T04:24:36.361Z,-1.02
2022-12-09T04:27:03.678Z,-0.89
2022-12-09T04:29:30.797Z,-1.14
2022-12-09T04:31:58.057Z,-0.95
2022-12-09T04:34:25.257Z,-0.93
2022-12-09T04:36:52.793Z,-1.18
2022-12-09T04:39:19.840Z,-0.84
2022-12-09T04:41:46.814Z,-0.69
2022-12-09T04:44:14.124Z,-0.61
2022-12-09T04:46:41.291Z,-0.80
2022-12-09T04:49:08.425Z,-0.86
2022-12-09T04:51:39.600Z,-0.78
2022-12-09T04:54:11.206Z,-0.65
2022-12-09T04:56:38.438Z,-0.63
2022-12-09T04:59:06.307Z,-0.74
2022-12-09T05:01:33.917Z,-0.89
2022-12-09T05:04:01.322Z,-0.86
2022-12-09T05:06:29.443Z,-0.73
2022-12-09T05:08:57.278Z,-0.82
2022-12-09T05:11:25.210Z,-1.23
2022-12-09T05:13:53.957Z,-1.41
2022-12-09T05:16:21.570Z,-1.62
2022-12-09T05:18:49.927Z,-1.62
2022-12-09T05:21:22.455Z,-1.44
2022-12-09T05:23:50.315Z,-1.35
2022-12-09T05:26:22.146Z,-1.40
2022-12-09T05:28:51.010Z,-1.34
2022-12-09T05:31:22.951Z,-1.33
2022-12-09T05:33:52.287Z,-1.50
2022-12-09T05:36:25.209Z,-1.52
2022-12-09T05:38:54.147Z,-1.56
2022-12-09T05:41:23.700Z,-1.69
2022-12-09T05:43:51.908Z,-1.47
2022-12-09T05:46:19.858Z,-1.73
2022-12-09T05:48:47.561Z,-1.60
2022-12-09T05:51:28.592Z,-1.41
2022-12-09T05:54:00.298Z,-1.36
2022-12-09T05:56:28.414Z,-1.40
2022-12-09T05:58:56.731Z,-1.23
2022-12-09T06:01:27.296Z,-1.50
2022-12-09T06:04:00.492Z,-1.23
2022-12-09T06:06:30.207Z,-1.03
2022-12-09T06:09:01.594Z,-0.95
2022-12-09T06:11:30.203Z,-1.10
2022-12-09T06:14:00.925Z,-1.21
2022-12-09T06:16:28.185Z,-1.33
2022-12-09T06:18:56.019Z,-1.55
2022-12-09T06:21:23.856Z,-1.56
2022-12-09T06:23:52.346Z,-1.32
2022-12-09T06:26:30.189Z,-1.44
2022-12-09T06:28:59.796Z,-1.47
2022-12-09T06:31:30.110Z,-1.39
2022-12-09T06:33:58.749Z,-1.47
2022-12-09T06:36:30.296Z,-1.32
2022-12-09T06:39:05.854Z,-1.39
2022-12-09T06:41:35.233Z,-1.49
2022-12-09T06:44:02.787Z,-1.34
2022-12-09T06:46:30.509Z,-1.38
2022-12-09T06:48:58.111Z,-1.45
2022-12-09T06:51:26.824Z,-1.52
2022-12-09T06:53:55.960Z,-1.57
2022-12-09T06:56:24.024Z,-1.56
2022-12-09T06:58:51.622Z,-1.60
2022-12-09T07:01:23.847Z,-1.61
2022-12-09T07:03:56.757Z,-1.56
2022-12-09T07:06:36.294Z,-1.35
2022-12-09T07:09:20.986Z,-1.45
2022-12-09T07:11:49.042Z,-1.61
2022-12-09T07:14:20.105Z,-1.45
2022-12-09T07:16:48.096Z,-1.62
2022-12-09T07:19:21.113Z,-1.51
2022-12-09T07:21:50.870Z,-1.48
2022-12-09T07:24:19.764Z,-1.59
2022-12-09T07:26:48.521Z,-1.26
2022-12-09T07:29:16.566Z,-1.48
2022-12-09T07:31:45.279Z,-1.61
2022-12-09T07:34:12.717Z,-1.41
2022-12-09T07:36:40.710Z,-1.57
2022-12-09T07:39:15.715Z,-1.47
2022-12-09T07:41:44.051Z,-1.41
2022-12-09T07:44:12.078Z,-1.40
2022-12-09T07:46:40.785Z,-1.42
2022-12-09T07:49:08.494Z,-1.46
2022-12-09T07:51:35.730Z,-1.39
2022-12-09T07:54:03.460Z,-1.13
2022-12-09T07:56:30.925Z,-1.40
2022-12-09T07:58:58.842Z,-1.05
2022-12-09T08:01:31.190Z,-1.13
2022-12-09T08:03:59.277Z,-1.21
2022-12-09T08:06:30.351Z,-1.25
2022-12-09T08:09:04.037Z,-0.86
2022-12-09T08:11:33.534Z,-0.82
2022-12-09T08:14:11.270Z,-0.69
2022-12-09T08:16:41.979Z,-0.69
2022-12-09T08:19:10.303Z,-0.62
2022-12-09T08:21:39.840Z,-0.89
2022-12-09T08:24:08.227Z,-1.15
2022-12-09T08:26:39.223Z,-0.83
2022-12-09T08:29:13.593Z,-0.75
2022-12-09T08:31:44.141Z,-0.62
2022-12-09T08:34:12.125Z,-0.71
2022-12-09T08:36:39.978Z,-0.66
2022-12-09T08:39:07.976Z,-0.54
2022-12-09T08:41:38.516Z,-0.39
2022-12-09T08:44:08.302Z,-0.46
2022-12-09T08:46:39.111Z,-0.39
2022-12-09T08:49:07.403Z,-0.21
2022-12-09T08:51:35.834Z,-0.26
2022-12-09T08:54:04.965Z,-0.22
2022-12-09T08:56:32.813Z,-0.60
2022-12-09T08:58:59.869Z,-0.29
2022-12-09T09:01:33.738Z,-0.22
2022-12-09T09:04:10.690Z,-0.09
2022-12-09T09:06:42.439Z,-0.03
2022-12-09T09:09:12.522Z,-0.35
2022-12-09T09:11:41.294Z,-0.05
2022-12-09T09:14:11.642Z,-0.04
2022-12-09T09:16:43.117Z,-0.08
2022-12-09T09:19:21.520Z,-0.01
2022-12-09T09:21:49.952Z,-0.28
2022-12-09T09:24:23.078Z,-0.23
2022-12-09T09:26:53.216Z,0.05
2022-12-09T09:29:23.581Z,-0.10
2022-12-09T09:31:54.652Z,0.06
2022-12-09T09:34:25.017Z,0.01
2022-12-09T09:36:52.782Z,-0.20
2022-12-09T09:39:20.919Z,0.22
2022-12-09T09:41:55.513Z,0.09
2022-12-09T09:44:49.368Z,0.04
2022-12-09T09:47:39.771Z,-0.01
2022-12-09T09:50:59.986Z,0.11
2022-12-09T09:53:35.631Z,0.33
2022-12-09T09:56:27.729Z,0.38
2022-12-09T09:59:34.304Z,0.13
2022-12-09T10:02:24.093Z,0.20
2022-12-09T10:05:30.440Z,0.07
2022-12-09T10:08:32.532Z,0.41
2022-12-09T10:11:19.845Z,0.28
2022-12-09T10:14:16.283Z,0.41
2022-12-09T10:17:06.980Z,0.42
2022-12-09T10:20:07.057Z,0.56
2022-12-09T10:23:12.027Z,0.83
2022-12-09T10:25:52.824Z,0.60
2022-12-09T10:28:35.267Z,0.61
2022-12-09T10:31:04.303Z,0.35
2022-12-09T10:33:39.101Z,0.53
2022-12-09T10:36:35.984Z,0.72
2022-12-09T10:39:05.308Z,0.60
2022-12-09T10:42:14.145Z,0.41
2022-12-09T10:44:42.430Z,0.41
2022-12-09T10:47:29.506Z,0.26
2022-12-09T10:49:59.520Z,0.72
2022-12-09T10:52:42.564Z,1.13
2022-12-09T10:55:35.732Z,0.74
2022-12-09T10:58:31.978Z,0.69
2022-12-09T11:01:13.492Z,0.67
2022-12-09T11:03:55.905Z,0.21
2022-12-09T11:06:42.634Z,0.53
2022-12-09T11:09:29.078Z,0.04
2022-12-09T11:11:56.823Z,0.18
2022-12-09T11:14:30.498Z,0.54
2022-12-09T11:17:11.514Z,0.80
2022-12-09T11:19:40.818Z,0.76
2022-12-09T11:22:24.906Z,0.17
2022-12-09T11:25:06.129Z,0.22
2022-12-09T11:27:34.897Z,0.26
2022-12-09T11:30:22.338Z,-0.11
2022-12-09T11:33:14.112Z,0.04
2022-12-09T11:35:44.813Z,0.09
2022-12-09T11:38:39.915Z,-0.07
2022-12-09T11:41:09.722Z,-0.06
2022-12-09T11:43:52.417Z,-0.15
2022-12-09T11:46:30.723Z,-0.56
2022-12-09T11:49:16.386Z,-0.56
2022-12-09T11:52:28.254Z,-0.11
2022-12-09T11:55:22.655Z,0.51
2022-12-09T11:57:58.198Z,0.05
2022-12-09T12:00:36.178Z,-0.01
2022-12-09T12:03:55.006Z,0.23
2022-12-09T12:06:35.472Z,0.57
2022-12-09T12:09:28.543Z,0.19
2022-12-09T12:12:22.407Z,0.04
2022-12-09T12:14:49.718Z,-0.36
2022-12-09T12:17:56.441Z,-0.46
2022-12-09T12:21:18.826Z,-0.52
2022-12-09T12:24:50.385Z,-0.57
2022-12-09T12:27:41.746Z,-0.26
2022-12-09T12:30:21.861Z,-0.16
2022-12-09T12:34:23.466Z,-0.17
2022-12-09T12:37:30.146Z,-0.30
2022-12-09T12:40:33.248Z,-0.69
2022-12-09T12:43:55.868Z,-0.53
2022-12-09T12:46:32.928Z,-0.26
2022-12-09T12:49:37.960Z,-0.32
2022-12-09T12:53:00.740Z,-0.47
2022-12-09T12:55:49.248Z,-0.94
2022-12-09T12:58:52.106Z,-0.95
2022-12-09T13:01:32.167Z,-0.63
2022-12-09T13:04:44.021Z,-0.77
2022-12-09T13:07:44.339Z,-0.48
2022-12-09T13:10:43.287Z,-0.29
2022-12-09T13:13:31.907Z,-0.06
2022-12-09T13:16:29.881Z,-0.15
2022-12-09T13:19:27.550Z,-0.26
2022-12-09T13:21:55.117Z,-0.30
2022-12-09T13:24:42.184Z,-0.31
2022-12-09T13:27:46.904Z,-0.51
2022-12-09T13:30:33.929Z,-0.21
2022-12-09T13:33:47.945Z,-0.38
2022-12-09T13:36:46.238Z,-0.59
2022-12-09T13:39:39.065Z,-0.95
2022-12-09T13:42:47.822Z,-1.03
2022-12-09T13:45:35.389Z,-0.85
2022-12-09T13:48:16.631Z,-1.00
2022-12-09T13:50:55.897Z,-0.76
2022-12-09T13:54:07.239Z,-0.76
2022-12-09T13:56:36.948Z,-0.52
2022-12-09T13:59:55.097Z,-0.47
2022-12-09T14:02:52.401Z,-0.63
2022-12-09T14:05:28.218Z,-0.47
2022-12-09T14:08:22.290Z,-0.68
2022-12-09T14:10:50.764Z,-0.48
2022-12-09T14:13:36.404Z,-0.48
2022-12-09T14:16:27.532Z,-0.36
2022-12-09T14:18:56.914Z,-0.33
2022-12-09T14:21:31.502Z,-0.50
2022-12-09T14:24:11.359Z,-0.40
2022-12-09T14:26:46.748Z,-0.53
2022-12-09T14:29:42.401Z,-0.54
2022-12-09T14:32:50.660Z,-0.62
2022-12-09T14:35:47.801Z,-0.63
2022-12-09T14:38:54.339Z,-0.78
2022-12-09T14:42:07.812Z,-0.88
2022-12-09T14:45:16.072Z,-0.81
2022-12-09T14:47:47.796Z,-0.85
2022-12-09T14:50:27.761Z,-0.93
2022-12-09T14:53:05.123Z,-1.08
2022-12-09T14:55:40.186Z,-1.45
2022-12-09T14:58:15.768Z,-1.20
2022-12-09T15:00:43.526Z,-1.40
2022-12-09T15:03:35.613Z,-1.05
2022-12-09T15:06:27.183Z,-0.86
2022-12-09T15:08:59.563Z,-0.97
2022-12-09T15:11:35.885Z,-0.82
2022-12-09T15:14:27.241Z,-0.70
2022-12-09T15:16:56.947Z,-0.67
2022-12-09T15:19:58.641Z,-0.63
2022-12-09T15:22:31.459Z,-0.79
2022-12-09T15:24:59.454Z,-0.66
2022-12-09T15:27:28.041Z,-0.77
2022-12-09T15:29:55.125Z,-0.74
2022-12-09T15:32:30.063Z,-0.74
2022-12-09T15:35:23.769Z,-0.70
2022-12-09T15:37:54.751Z,-0.72
2022-12-09T15:40:22.775Z,-0.72
2022-12-09T15:42:53.988Z,-0.90
2022-12-09T15:45:26.842Z,-0.82
2022-12-09T15:48:15.978Z,-0.72
2022-12-09T15:50:57.223Z,-0.74
2022-12-09T15:53:36.808Z,-0.81
2022-12-09T15:56:31.024Z,-0.88
2022-12-09T15:59:07.364Z,-0.78
2022-12-09T16:01:35.482Z,-0.92
2022-12-09T16:04:05.788Z,-1.04
2022-12-09T16:06:37.704Z,-0.94
2022-12-09T16:09:16.032Z,-0.89
2022-12-09T16:11:52.249Z,-0.90
2022-12-09T16:14:23.468Z,-1.04
2022-12-09T16:17:03.826Z,-1.10
2022-12-09T16:19:38.285Z,-1.03
2022-12-09T16:22:15.230Z,-1.01
2022-12-09T16:25:16.389Z,-0.80
2022-12-09T16:27:51.766Z,-0.81
2022-12-09T16:30:24.888Z,-0.86
2022-12-09T16:32:58.855Z,-0.81
2022-12-09T16:36:04.919Z,-1.00
2022-12-09T16:38:47.781Z,-1.10
2022-12-09T16:41:14.989Z,-0.92
2022-12-09T16:43:56.911Z,-1.01
2022-12-09T16:46:36.233Z,-0.89
2022-12-09T16:49:05.145Z,-0.84
2022-12-09T16:51:32.887Z,-1.05
2022-12-09T16:54:01.168Z,-1.13
2022-12-09T16:56:34.748Z,-1.06
2022-12-09T16:59:05.022Z,-1.13
2022-12-09T17:01:48.991Z,-1.19
2022-12-09T17:04:27.220Z,-1.12
2022-12-09T17:06:54.655Z,-1.40
2022-12-09T17:09:27.386Z,-1.40
2022-12-09T17:11:54.541Z,-1.35
2022-12-09T17:14:21.644Z,-1.47
2022-12-09T17:16:52.496Z,-1.34
2022-12-09T17:19:24.687Z,-1.65
2022-12-09T17:22:05.311Z,-1.53
2022-12-09T17:24:32.678Z,-1.31
2022-12-09T17:27:00.262Z,-1.31
2022-12-09T17:29:27.826Z,-1.33
2022-12-09T17:31:55.522Z,-1.38
2022-12-09T17:34:22.664Z,-1.43
2022-12-09T17:36:49.856Z,-1.43
2022-12-09T17:39:17.099Z,-1.72
2022-12-09T17:41:44.245Z,-1.61
2022-12-09T17:44:11.284Z,-1.57
2022-12-09T17:46:38.367Z,-1.74
2022-12-09T17:49:05.421Z,-1.73
2022-12-09T17:51:36.258Z,-2.03
2022-12-09T17:54:05.289Z,-1.89
2022-12-09T17:56:32.693Z,-1.71
2022-12-09T17:59:11.751Z,-1.59
2022-12-09T18:01:44.103Z,-1.73
2022-12-09T18:04:11.572Z,-1.81
2022-12-09T18:06:46.558Z,-1.79
2022-12-09T18:09:18.749Z,-1.81
2022-12-09T18:11:47.151Z,-1.71
2022-12-09T18:14:15.684Z,-1.51
2022-12-09T18:16:43.423Z,-1.56
2022-12-09T18:19:17.051Z,-1.63
2022-12-09T18:21:45.545Z,-1.62
2022-12-09T18:24:13.671Z,-1.79
2022-12-09T18:26:42.149Z,-1.67
2022-12-09T18:29:11.793Z,-1.64
2022-12-09T18:31:40.549Z,-1.54
2022-12-09T18:34:08.073Z,-2.18
2022-12-09T18:36:35.397Z,-2.06
2022-12-09T18:39:02.878Z,-2.03
2022-12-09T18:41:32.029Z,-2.16
2022-12-09T18:44:05.453Z,-2.04
2022-12-09T18:46:38.708Z,-1.96
2022-12-09T18:49:19.376Z,-2.32
2022-12-09T18:51:49.909Z,-2.04
2022-12-09T18:54:36.649Z,-2.08
2022-12-09T18:57:03.980Z,-2.05
2022-12-09T18:59:31.429Z,-2.05
2022-12-09T19:01:59.275Z,-1.85
2022-12-09T19:04:33.117Z,-1.90
2022-12-09T19:07:01.907Z,-2.07
2022-12-09T19:09:34.897Z,-2.01
2022-12-09T19:12:38.330Z,-1.93
2022-12-09T19:14:53.682Z,-2.13
2022-12-09T19:17:21.699Z,-2.17
2022-12-09T19:19:49.504Z,-1.95
2022-12-09T19:22:16.751Z,-1.87
2022-12-09T19:24:44.213Z,-1.75
2022-12-09T19:27:11.348Z,-2.06
2022-12-09T19:29:39.641Z,-2.21
2022-12-09T19:32:23.642Z,-2.23
2022-12-09T19:34:53.903Z,-2.13
2022-12-09T19:37:21.660Z,-2.25
2022-12-09T19:39:49.261Z,-2.27
2022-12-09T19:42:16.800Z,-2.14
2022-12-09T19:45:00.823Z,-2.13
2022-12-09T19:47:28.371Z,-2.15
2022-12-09T19:49:56.231Z,-2.13
2022-12-09T19:52:23.218Z,-2.11
2022-12-09T19:54:50.209Z,-2.04
2022-12-09T19:57:17.262Z,-2.08
2022-12-09T19:59:44.352Z,-2.35
2022-12-09T20:02:13.905Z,-2.35
2022-12-09T20:04:50.171Z,-2.11
2022-12-09T20:07:20.583Z,-2.06
2022-12-09T20:09:48.582Z,-2.11
2022-12-09T20:12:15.766Z,-2.15
2022-12-09T20:14:43.205Z,-2.18
2022-12-09T20:17:10.609Z,-2.06
2022-12-09T20:19:37.696Z,-2.05
2022-12-09T20:22:05.195Z,-2.00
2022-12-09T20:24:32.221Z,-1.86
2022-12-09T20:26:59.467Z,-2.00
2022-12-09T20:29:26.519Z,-2.06
2022-12-09T20:31:53.829Z,-1.84
2022-12-09T20:34:20.979Z,-1.85
2022-12-09T20:36:48.523Z,-1.70
2022-12-09T20:39:20.517Z,-1.62
2022-12-09T20:41:48.725Z,-1.74
2022-12-09T20:44:19.920Z,-1.76
2022-12-09T20:46:52.036Z,-1.74
2022-12-09T20:49:26.058Z,-1.91
2022-12-09T20:51:53.992Z,-2.07
2022-12-09T20:54:21.233Z,-1.84
2022-12-09T20:56:48.991Z,-2.12
2022-12-09T20:59:19.359Z,-1.90
2022-12-09T21:01:47.169Z,-1.89
2022-12-09T21:04:15.073Z,-1.76
2022-12-09T21:06:43.468Z,-1.87
2022-12-09T21:09:19.972Z,-2.17
2022-12-09T21:11:49.659Z,-2.12
2022-12-09T21:14:18.680Z,-2.09
2022-12-09T21:16:47.490Z,-1.90
2022-12-09T21:19:17.667Z,-1.75
2022-12-09T21:21:46.977Z,-1.95
2022-12-09T21:24:23.993Z,-2.02
2022-12-09T21:26:58.506Z,-2.23
2022-12-09T21:29:32.149Z,-2.24
2022-12-09T21:32:01.591Z,-2.04
2022-12-09T21:34:28.771Z,-2.00
2022-12-09T21:36:55.845Z,-2.02
2022-12-09T21:39:22.870Z,-2.25
2022-12-09T21:41:49.951Z,-2.02
2022-12-09T21:44:19.332Z,-2.00
2022-12-09T21:46:46.380Z,-2.03
2022-12-09T21:49:13.749Z,-1.99
2022-12-09T21:51:42.485Z,-2.05
2022-12-09T21:54:09.708Z,-2.28
2022-12-09T21:56:36.982Z,-2.28
2022-12-09T21:59:06.808Z,-2.18
2022-12-09T22:01:40.929Z,-2.21
2022-12-09T22:04:13.313Z,-2.34
2022-12-09T22:06:40.539Z,-2.23
2022-12-09T22:09:08.951Z,-2.09
2022-12-09T22:11:38.476Z,-2.09
2022-12-09T22:14:09.199Z,-2.04
2022-12-09T22:16:41.712Z,-1.97
2022-12-09T22:19:15.403Z,-2.12
2022-12-09T22:21:46.009Z,-1.77
2022-12-09T22:24:14.354Z,-1.91
2022-12-09T22:26:45.536Z,-2.05
2022-12-09T22:29:16.037Z,-1.99
2022-12-09T22:31:44.316Z,-2.03
2022-12-09T22:34:19.148Z,-2.04
2022-12-09T22:36:49.213Z,-2.18
2022-12-09T22:39:21.825Z,-2.03
2022-12-09T22:41:49.368Z,-2.09
2022-12-09T22:44:19.691Z,-2.03
2022-12-09T22:46:49.307Z,-2.09
2022-12-09T22:49:17.639Z,-2.02
2022-12-09T22:51:46.410Z,-1.94
2022-12-09T22:54:14.472Z,-1.94
2022-12-09T22:56:43.841Z,-2.20
2022-12-09T22:59:13.679Z,-2.15
2022-12-09T23:01:43.080Z,-2.15
2022-12-09T23:04:17.334Z,-2.24
2022-12-09T23:06:45.169Z,-2.34
2022-12-09T23:09:24.945Z,-2.19
2022-12-09T23:11:53.281Z,-2.21
2022-12-09T23:14:20.486Z,-2.35
2022-12-09T23:16:47.755Z,-2.21
2022-12-09T23:19:16.584Z,-2.13
2022-12-09T23:21:43.893Z,-1.95
2022-12-09T23:24:22.567Z,-2.08
2022-12-09T23:26:53.923Z,-1.98
2022-12-09T23:29:21.332Z,-2.05
2022-12-09T23:31:48.767Z,-2.05
2022-12-09T23:34:16.522Z,-2.13
2022-12-09T23:36:45.177Z,-2.04
2022-12-09T23:39:17.326Z,-2.15
2022-12-09T23:41:45.833Z,-2.10
2022-12-09T23:44:18.526Z,-2.19
2022-12-09T23:46:46.154Z,-2.26
2022-12-09T23:49:13.374Z,-2.29
2022-12-09T23:51:43.815Z,-2.23
2022-12-09T23:54:14.475Z,-2.25
2022-12-09T23:56:46.186Z,-2.19
2022-12-09T23:59:14.429Z,-2.40
